Baltimore, Maryland
Traffic Map
Current Weather Conditions
Baltimore, Maryland
Broken Clouds
Broken Clouds
23°
Feels Like: 23°
Wind Chill: 23° Ceiling: 14000
Heat Index: 23° Visibility: 10mi
Dew Point: 22° Wind: 3mph
Humidity: 93% Direction: 320° (NW)
Pressure: 29.89in Gusts: 0mph
Raw Report DataKBWI 030354Z 32003KT 10SM FEW040 SCT085 BKN140 23/22 A2989 RMK AO2 SLP121 FRQ LTGIC DSNT SE CB DSNT SE MOV E T02280217
Traffic Incident Summary
Active as of:
Severity:
Category:
InformationThere was an issue retrieving the traffic information for this location. Please try a different location or try again shortly.
Advertisements
Track Severe Weather on mobile